createdAt,value
2018-04-11T00:02:19.764Z,4.20
2018-04-11T00:04:46.004Z,4.37
2018-04-11T00:07:12.295Z,4.17
2018-04-11T00:09:38.580Z,4.40
2018-04-11T00:12:05.602Z,3.73
2018-04-11T00:14:31.926Z,4.07
2018-04-11T00:16:58.192Z,3.93
2018-04-11T00:19:25.250Z,6.30
2018-04-11T00:21:51.531Z,4.37
2018-04-11T00:24:17.830Z,5.37
2018-04-11T00:26:44.128Z,4.30
2018-04-11T00:29:11.178Z,5.00
2018-04-11T00:31:38.214Z,5.60
2018-04-11T00:34:05.215Z,5.50
2018-04-11T00:36:31.479Z,5.50
2018-04-11T00:38:57.807Z,5.33
2018-04-11T00:41:24.357Z,5.60
2018-04-11T00:43:51.343Z,5.73
2018-04-11T00:46:17.637Z,4.47
2018-04-11T00:48:44.706Z,4.27
2018-04-11T00:51:11.013Z,4.53
2018-04-11T00:53:38.038Z,4.43
2018-04-11T00:56:04.377Z,3.80
2018-04-11T00:58:31.413Z,4.67
2018-04-11T01:00:57.738Z,5.20
2018-04-11T01:03:24.042Z,4.70
2018-04-11T01:05:50.366Z,5.00
2018-04-11T01:08:16.631Z,5.50
2018-04-11T01:10:42.933Z,5.60
2018-04-11T01:13:09.263Z,4.97
2018-04-11T01:15:35.521Z,4.60
2018-04-11T01:18:01.798Z,4.77
2018-04-11T01:20:28.065Z,5.00
2018-04-11T01:22:54.326Z,4.77
2018-04-11T01:25:20.632Z,4.30
2018-04-11T01:27:46.882Z,4.40
2018-04-11T01:30:13.214Z,5.00
2018-04-11T01:32:39.470Z,5.97
2018-04-11T01:35:06.482Z,5.43
2018-04-11T01:37:32.774Z,5.10
2018-04-11T01:39:59.053Z,5.80
2018-04-11T01:42:25.780Z,6.30
2018-04-11T01:44:52.078Z,7.20
2018-04-11T01:47:18.330Z,5.87
2018-04-11T01:49:44.659Z,5.00
2018-04-11T01:52:11.650Z,6.07
2018-04-11T01:54:38.675Z,6.00
2018-04-11T01:57:04.967Z,4.97
2018-04-11T01:59:31.234Z,5.57
2018-04-11T02:01:57.620Z,5.80
2018-04-11T02:04:23.893Z,6.33
2018-04-11T02:06:51.123Z,5.97
2018-04-11T02:09:17.389Z,6.10
2018-04-11T02:11:43.709Z,6.40
2018-04-11T02:14:10.012Z,6.10
2018-04-11T02:16:36.301Z,6.10
2018-04-11T02:19:03.365Z,5.57
2018-04-11T02:21:29.666Z,6.23
2018-04-11T02:23:55.947Z,5.80
2018-04-11T02:26:22.241Z,5.67
2018-04-11T02:28:48.548Z,6.83
2018-04-11T02:31:14.841Z,7.00
2018-04-11T02:33:41.104Z,7.80
2018-04-11T02:36:07.438Z,5.87
2018-04-11T02:38:33.733Z,6.70
2018-04-11T02:41:00.014Z,7.50
2018-04-11T02:43:27.027Z,7.70
2018-04-11T02:45:53.282Z,6.33
2018-04-11T02:48:20.314Z,6.67
2018-04-11T02:50:46.611Z,6.77
2018-04-11T02:53:12.877Z,6.90
2018-04-11T02:55:39.187Z,7.83
2018-04-11T02:58:05.361Z,7.60
2018-04-11T03:00:32.344Z,8.50
2018-04-11T03:02:58.586Z,7.50
2018-04-11T03:05:24.870Z,7.90
2018-04-11T03:07:51.954Z,7.40
2018-04-11T03:10:18.295Z,8.67
2018-04-11T03:12:44.589Z,7.90
2018-04-11T03:15:10.914Z,8.60
2018-04-11T03:17:37.995Z,8.10
2018-04-11T03:20:04.262Z,8.30
2018-04-11T03:22:30.618Z,7.53
2018-04-11T03:24:56.883Z,7.33
2018-04-11T03:27:23.145Z,8.40
2018-04-11T03:29:49.438Z,7.63
2018-04-11T03:32:15.750Z,7.93
2018-04-11T03:34:42.114Z,7.63
2018-04-11T03:37:08.355Z,8.10
2018-04-11T03:39:34.658Z,8.50
2018-04-11T03:42:00.900Z,7.47
2018-04-11T03:44:27.143Z,8.30
2018-04-11T03:46:54.374Z,8.03
2018-04-11T03:49:20.746Z,8.47
2018-04-11T03:51:47.042Z,8.63
2018-04-11T03:54:13.374Z,8.87
2018-04-11T03:56:39.692Z,8.70
2018-04-11T03:59:06.002Z,7.50
2018-04-11T04:01:32.271Z,7.80
2018-04-11T04:03:58.611Z,9.13
2018-04-11T04:06:24.919Z,8.67
2018-04-11T04:08:51.184Z,8.80
2018-04-11T04:11:17.507Z,8.30
2018-04-11T04:14:02.583Z,8.30
2018-04-11T04:16:47.509Z,9.13
2018-04-11T04:19:32.510Z,8.10
2018-04-11T04:21:58.802Z,8.67
2018-04-11T04:24:25.061Z,8.07
2018-04-11T04:26:51.325Z,9.37
2018-04-11T04:29:18.679Z,10.07
2018-04-11T04:31:44.950Z,9.40
2018-04-11T04:34:11.234Z,9.87
2018-04-11T04:36:39.048Z,8.80
2018-04-11T04:39:05.328Z,9.60
2018-04-11T04:41:31.902Z,8.87
2018-04-11T04:43:58.938Z,7.53
2018-04-11T04:46:25.970Z,8.30
2018-04-11T04:48:52.255Z,7.67
2018-04-11T04:51:18.557Z,7.77
2018-04-11T04:53:45.603Z,8.90
2018-04-11T04:56:11.897Z,9.23
2018-04-11T04:58:38.163Z,7.83
2018-04-11T05:01:05.221Z,8.57
2018-04-11T05:03:31.503Z,8.73
2018-04-11T05:05:57.852Z,8.23
2018-04-11T05:08:30.954Z,8.20
2018-04-11T05:10:58.012Z,8.07
2018-04-11T05:13:25.909Z,8.60
2018-04-11T05:15:52.243Z,8.33
2018-04-11T05:18:19.327Z,8.20
2018-04-11T05:20:45.615Z,8.40
2018-04-11T05:23:11.937Z,10.10
2018-04-11T05:25:38.248Z,9.00
2018-04-11T05:28:05.322Z,8.83
2018-04-11T05:30:31.586Z,10.00
2018-04-11T05:32:57.929Z,10.27
2018-04-11T05:35:24.287Z,8.93
2018-04-11T05:37:51.337Z,9.63
2018-04-11T05:40:18.395Z,10.33
2018-04-11T05:42:44.647Z,8.93
2018-04-11T05:45:10.901Z,9.70
2018-04-11T05:47:37.191Z,9.90
2018-04-11T05:50:04.461Z,8.43
2018-04-11T05:52:30.755Z,8.73
2018-04-11T05:54:57.772Z,10.30
2018-04-11T05:57:24.058Z,11.43
2018-04-11T05:59:50.326Z,10.23
2018-04-11T06:02:16.622Z,9.23
2018-04-11T06:04:42.906Z,11.20
2018-04-11T06:07:09.170Z,10.80
2018-04-11T06:09:35.497Z,13.20
2018-04-11T06:12:01.834Z,13.07
2018-04-11T06:14:28.165Z,10.73
2018-04-11T06:16:54.444Z,10.03
2018-04-11T06:19:20.726Z,11.10
2018-04-11T06:21:47.035Z,9.53
2018-04-11T06:24:14.226Z,11.00
2018-04-11T06:26:40.530Z,9.10
2018-04-11T06:29:06.812Z,9.03
2018-04-11T06:31:33.066Z,9.47
2018-04-11T06:34:00.066Z,9.50
2018-04-11T06:36:26.341Z,7.70
2018-04-11T06:38:53.409Z,9.80
2018-04-11T06:41:20.424Z,10.10
2018-04-11T06:43:46.726Z,9.07
2018-04-11T06:46:13.047Z,11.03
2018-04-11T06:48:39.349Z,9.30
2018-04-11T06:51:06.382Z,10.30
2018-04-11T06:53:33.421Z,10.03
2018-04-11T06:55:59.711Z,9.77
2018-04-11T06:58:26.030Z,9.83
2018-04-11T07:00:52.279Z,9.20
2018-04-11T07:03:25.605Z,8.90
2018-04-11T07:05:52.603Z,10.23
2018-04-11T07:08:18.933Z,8.53
2018-04-11T07:10:45.217Z,10.73
2018-04-11T07:13:11.486Z,9.77
2018-04-11T07:15:37.762Z,10.07
2018-04-11T07:18:04.028Z,8.83
2018-04-11T07:20:30.342Z,8.90
2018-04-11T07:22:57.343Z,10.10
2018-04-11T07:25:23.631Z,10.00
2018-04-11T07:27:50.633Z,9.07
2018-04-11T07:30:17.801Z,9.30
2018-04-11T07:32:44.062Z,9.83
2018-04-11T07:35:11.076Z,9.93
2018-04-11T07:37:37.339Z,10.30
2018-04-11T07:40:03.664Z,9.27
2018-04-11T07:42:31.006Z,9.90
2018-04-11T07:44:57.352Z,8.13
2018-04-11T07:47:24.417Z,8.10
2018-04-11T07:49:50.792Z,10.07
2018-04-11T07:52:17.074Z,9.20
2018-04-11T07:54:43.381Z,9.40
2018-04-11T07:57:10.407Z,8.23
2018-04-11T07:59:36.742Z,9.90
2018-04-11T08:02:03.068Z,8.70
2018-04-11T08:04:29.337Z,7.77
2018-04-11T08:06:56.385Z,8.77
2018-04-11T08:09:23.408Z,9.53
2018-04-11T08:11:50.441Z,8.90
2018-04-11T08:14:16.716Z,8.60
2018-04-11T08:16:43.015Z,7.93
2018-04-11T08:19:10.790Z,7.93
2018-04-11T08:21:37.830Z,6.87
2018-04-11T08:24:04.078Z,8.00
2018-04-11T08:26:31.137Z,7.00
2018-04-11T08:28:57.408Z,9.17
2018-04-11T08:31:23.722Z,7.80
2018-04-11T08:33:49.998Z,7.83
2018-04-11T08:36:16.311Z,8.37
2018-04-11T08:38:42.561Z,7.50
2018-04-11T08:41:08.852Z,7.13
2018-04-11T08:43:35.143Z,7.47
2018-04-11T08:46:02.146Z,7.80
2018-04-11T08:48:28.431Z,6.97
2018-04-11T08:51:01.787Z,6.70
2018-04-11T08:53:28.071Z,8.47
2018-04-11T08:55:54.389Z,7.93
2018-04-11T08:58:20.670Z,6.80
2018-04-11T09:00:46.961Z,7.00
2018-04-11T09:03:13.252Z,5.70
2018-04-11T09:05:40.283Z,6.73
2018-04-11T09:08:06.593Z,6.60
2018-04-11T09:10:32.884Z,6.03
2018-04-11T09:12:59.143Z,6.23
2018-04-11T09:15:25.392Z,6.50
2018-04-11T09:17:51.677Z,6.10
2018-04-11T09:20:17.945Z,6.20
2018-04-11T09:22:44.238Z,6.33
2018-04-11T09:25:10.538Z,5.90
2018-04-11T09:27:36.870Z,5.20
2018-04-11T09:30:03.894Z,6.10
2018-04-11T09:32:30.150Z,5.87
2018-04-11T09:34:57.198Z,6.07
2018-04-11T09:37:24.215Z,6.03
2018-04-11T09:39:50.502Z,6.00
2018-04-11T09:42:16.802Z,5.80
2018-04-11T09:44:43.846Z,5.70
2018-04-11T09:47:10.208Z,5.90
2018-04-11T09:49:36.543Z,5.57
2018-04-11T09:52:02.906Z,5.23
2018-04-11T09:54:29.163Z,5.67
2018-04-11T09:56:55.441Z,4.97
2018-04-11T09:59:21.725Z,4.87
2018-04-11T10:01:49.981Z,5.20
2018-04-11T10:04:16.266Z,4.67
2018-04-11T10:06:42.558Z,4.60
2018-04-11T10:09:08.821Z,5.30
2018-04-11T10:11:35.093Z,5.03
2018-04-11T10:14:01.348Z,5.03
2018-04-11T10:16:27.642Z,4.63
2018-04-11T10:18:53.918Z,3.90
2018-04-11T10:21:20.220Z,4.77
2018-04-11T10:23:47.264Z,4.10
2018-04-11T10:26:13.580Z,4.07
2018-04-11T10:28:39.909Z,4.00
2018-04-11T10:31:06.268Z,4.30
2018-04-11T10:33:32.576Z,4.40
2018-04-11T10:35:58.877Z,4.83
2018-04-11T10:38:25.174Z,5.27
2018-04-11T10:40:51.451Z,4.63
2018-04-11T10:43:17.735Z,4.23
2018-04-11T10:45:44.043Z,5.03
2018-04-11T10:48:10.323Z,3.90
2018-04-11T10:50:37.370Z,4.10
2018-04-11T10:53:03.673Z,4.00
2018-04-11T10:55:29.950Z,4.40
2018-04-11T10:57:56.225Z,4.30
2018-04-11T11:00:22.506Z,3.67
2018-04-11T11:02:48.818Z,4.47
2018-04-11T11:05:15.816Z,3.23
2018-04-11T11:07:42.106Z,4.00
2018-04-11T11:10:08.419Z,3.43
2018-04-11T11:12:35.436Z,3.57
2018-04-11T11:15:01.738Z,3.43
2018-04-11T11:17:28.027Z,3.10
2018-04-11T11:20:01.065Z,2.90
2018-04-11T11:22:27.344Z,3.83
2018-04-11T11:24:54.348Z,2.83
2018-04-11T11:27:20.636Z,2.87
2018-04-11T11:29:47.650Z,2.90
2018-04-11T11:32:13.979Z,3.10
2018-04-11T11:34:40.379Z,2.77
2018-04-11T11:37:06.683Z,2.83
2018-04-11T11:39:32.960Z,2.80
2018-04-11T11:42:00.085Z,3.10
2018-04-11T11:44:26.375Z,3.67
2018-04-11T11:46:53.427Z,2.67
2018-04-11T11:49:20.494Z,2.53
2018-04-11T11:51:46.735Z,2.97
2018-04-11T11:54:13.007Z,3.23
2018-04-11T11:56:40.273Z,2.47
2018-04-11T11:59:07.332Z,2.30
2018-04-11T12:01:34.370Z,2.33
2018-04-11T12:04:00.653Z,2.27
2018-04-11T12:06:26.940Z,1.90
2018-04-11T12:08:53.972Z,2.80
2018-04-11T12:11:20.310Z,1.80
2018-04-11T12:13:46.586Z,2.00
2018-04-11T12:16:12.874Z,1.83
2018-04-11T12:18:39.911Z,2.00
2018-04-11T12:21:06.206Z,2.17
2018-04-11T12:23:32.493Z,2.60
2018-04-11T12:25:59.721Z,2.13
2018-04-11T12:28:26.038Z,2.27
2018-04-11T12:30:52.289Z,2.63
2018-04-11T12:33:18.639Z,2.57
2018-04-11T12:35:45.664Z,2.30
2018-04-11T12:38:11.991Z,1.77
2018-04-11T12:40:38.280Z,1.93
2018-04-11T12:43:04.609Z,2.50
2018-04-11T12:45:30.871Z,2.23
2018-04-11T12:47:57.135Z,1.80
2018-04-11T12:50:24.162Z,1.40
2018-04-11T12:52:50.466Z,1.73
2018-04-11T12:55:16.752Z,2.10
2018-04-11T12:57:43.760Z,2.27
2018-04-11T13:00:10.070Z,2.07
2018-04-11T13:02:36.290Z,1.70
2018-04-11T13:05:02.568Z,1.93
2018-04-11T13:07:29.623Z,2.27
2018-04-11T13:09:56.651Z,2.33
2018-04-11T13:12:22.989Z,1.60
2018-04-11T13:14:49.321Z,1.70
2018-04-11T13:17:15.579Z,1.90
2018-04-11T13:19:42.599Z,1.80
2018-04-11T13:22:08.897Z,2.10
2018-04-11T13:24:35.215Z,2.70
2018-04-11T13:27:01.579Z,1.87
2018-04-11T13:29:27.867Z,1.87
2018-04-11T13:31:54.161Z,1.93
2018-04-11T13:34:21.344Z,1.63
2018-04-11T13:36:47.651Z,2.03
2018-04-11T13:39:14.697Z,2.20
2018-04-11T13:41:41.781Z,2.47
2018-04-11T13:44:08.044Z,2.63
2018-04-11T13:46:34.380Z,2.33
2018-04-11T13:49:01.593Z,2.73
2018-04-11T13:51:27.897Z,3.30
2018-04-11T13:53:54.976Z,3.40
2018-04-11T13:56:21.318Z,3.57
2018-04-11T13:58:47.563Z,3.73
2018-04-11T14:01:13.875Z,3.87
2018-04-11T14:03:40.138Z,3.57
2018-04-11T14:06:06.418Z,3.60
2018-04-11T14:08:32.707Z,3.00
2018-04-11T14:10:59.014Z,2.50
2018-04-11T14:13:25.300Z,2.50
2018-04-11T14:15:51.570Z,2.70
2018-04-11T14:18:17.862Z,1.63
2018-04-11T14:20:44.166Z,2.07
2018-04-11T14:23:11.152Z,1.60
2018-04-11T14:25:37.470Z,1.67
2018-04-11T14:28:03.871Z,2.20
2018-04-11T14:30:30.892Z,1.97
2018-04-11T14:32:57.256Z,2.20
2018-04-11T14:35:24.327Z,2.17
2018-04-11T14:37:50.609Z,2.30
2018-04-11T14:40:16.918Z,2.07
2018-04-11T14:42:43.241Z,2.17
2018-04-11T14:45:09.566Z,2.70
2018-04-11T14:47:35.886Z,2.23
2018-04-11T14:50:02.159Z,2.50
2018-04-11T14:52:28.625Z,2.93
2018-04-11T14:54:55.703Z,3.10
2018-04-11T14:57:21.984Z,3.43
2018-04-11T14:59:48.252Z,3.40
2018-04-11T15:02:14.560Z,2.93
2018-04-11T15:04:41.643Z,2.67
2018-04-11T15:07:07.918Z,3.70
2018-04-11T15:09:34.219Z,3.87
2018-04-11T15:12:00.563Z,2.67
2018-04-11T15:14:26.832Z,3.03
2018-04-11T15:16:53.895Z,3.03
2018-04-11T15:19:20.921Z,2.90
2018-04-11T15:21:47.213Z,3.37
2018-04-11T15:24:13.514Z,3.47
2018-04-11T15:26:39.853Z,3.27
2018-04-11T15:29:06.155Z,3.43
2018-04-11T15:31:33.181Z,3.87
2018-04-11T15:33:59.436Z,3.27
2018-04-11T15:36:26.434Z,3.07
2018-04-11T15:38:52.719Z,3.43
2018-04-11T15:41:19.125Z,3.17
2018-04-11T15:43:45.379Z,2.77
2018-04-11T15:46:31.171Z,3.77
2018-04-11T15:48:58.241Z,3.50
2018-04-11T15:51:24.524Z,3.93
2018-04-11T15:53:50.789Z,4.10
2018-04-11T15:56:17.120Z,3.53
2018-04-11T15:58:44.082Z,3.63
2018-04-11T16:01:10.402Z,3.73
2018-04-11T16:03:36.690Z,4.10
2018-04-11T16:06:04.033Z,4.83
2018-04-11T16:08:30.397Z,4.60
2018-04-11T16:10:57.529Z,4.70
2018-04-11T16:13:23.876Z,4.17
2018-04-11T16:15:50.962Z,4.47
2018-04-11T16:18:17.343Z,4.60
2018-04-11T16:20:43.838Z,4.20
2018-04-11T16:23:10.126Z,5.07
2018-04-11T16:25:37.225Z,4.87
2018-04-11T16:28:03.519Z,6.07
2018-04-11T16:30:30.014Z,5.00
2018-04-11T16:32:56.337Z,5.17
2018-04-11T16:35:22.700Z,5.73
2018-04-11T16:37:49.755Z,6.13
2018-04-11T16:40:16.833Z,6.37
2018-04-11T16:42:43.138Z,5.73
2018-04-11T16:45:10.221Z,5.73
2018-04-11T16:47:36.560Z,6.43
2018-04-11T16:50:02.917Z,6.50
2018-04-11T16:52:29.306Z,6.90
2018-04-11T16:54:55.675Z,5.70
2018-04-11T16:57:22.027Z,5.77
2018-04-11T16:59:48.383Z,5.30
2018-04-11T17:02:14.791Z,5.47
2018-04-11T17:04:41.221Z,5.57
2018-04-11T17:07:08.416Z,5.30
2018-04-11T17:09:34.836Z,5.77
2018-04-11T17:12:01.218Z,5.30
2018-04-11T17:14:27.905Z,4.77
2018-04-11T17:16:54.232Z,6.30
2018-04-11T17:19:20.942Z,5.77
2018-04-11T17:22:05.946Z,5.40
2018-04-11T17:24:50.810Z,11.50
2018-04-11T17:27:35.788Z,5.47
2018-04-11T17:30:21.023Z,5.93
2018-04-11T17:32:47.559Z,4.30
2018-04-11T17:35:13.969Z,4.87
2018-04-11T17:37:40.338Z,5.93
2018-04-11T17:40:07.506Z,4.77
2018-04-11T17:42:33.830Z,6.20
2018-04-11T17:45:00.904Z,5.63
2018-04-11T17:47:27.218Z,5.70
2018-04-11T17:49:53.486Z,6.70
2018-04-11T17:52:19.775Z,5.90
2018-04-11T17:54:46.056Z,6.60
2018-04-11T17:57:12.604Z,6.50
2018-04-11T17:59:38.906Z,6.33
2018-04-11T18:02:05.250Z,7.10
2018-04-11T18:04:31.519Z,7.60
2018-04-11T18:06:58.545Z,7.87
2018-04-11T18:09:24.998Z,7.23
2018-04-11T18:11:51.290Z,9.23
2018-04-11T18:14:17.591Z,7.80
2018-04-11T18:16:43.899Z,8.10
2018-04-11T18:19:10.994Z,8.23
2018-04-11T18:21:37.428Z,7.93
2018-04-11T18:24:03.921Z,8.10
2018-04-11T18:26:30.915Z,8.00
2018-04-11T18:28:57.990Z,8.87
2018-04-11T18:31:24.360Z,8.30
2018-04-11T18:33:50.715Z,7.53
2018-04-11T18:36:17.032Z,8.80
2018-04-11T18:38:43.360Z,7.40
2018-04-11T18:41:09.681Z,8.07
2018-04-11T18:43:36.003Z,8.30
2018-04-11T18:46:03.131Z,8.60
2018-04-11T18:48:30.109Z,6.90
2018-04-11T18:50:56.503Z,6.63
2018-04-11T18:53:22.929Z,7.70
2018-04-11T18:55:49.251Z,7.53
2018-04-11T18:58:15.610Z,7.90
2018-04-11T19:00:42.692Z,9.30
2018-04-11T19:03:09.021Z,6.80
2018-04-11T19:05:35.386Z,8.20
2018-04-11T19:08:01.702Z,7.27
2018-04-11T19:10:27.975Z,6.50
2018-04-11T19:12:54.334Z,8.30
2018-04-11T19:15:21.426Z,7.50
2018-04-11T19:17:47.764Z,6.80
2018-04-11T19:20:14.077Z,7.83
2018-04-11T19:22:40.544Z,7.20
2018-04-11T19:25:07.057Z,7.10
2018-04-11T19:27:33.371Z,6.40
2018-04-11T19:29:59.749Z,6.63
2018-04-11T19:32:26.163Z,6.67
2018-04-11T19:34:52.502Z,7.13
2018-04-11T19:37:18.850Z,5.93
2018-04-11T19:39:45.260Z,7.67
2018-04-11T19:42:11.590Z,5.90
2018-04-11T19:44:37.954Z,6.63
2018-04-11T19:47:05.043Z,6.70
2018-04-11T19:49:31.380Z,6.57
2018-04-11T19:51:57.716Z,5.40
2018-04-11T19:54:24.020Z,6.00
2018-04-11T19:56:50.384Z,6.60
2018-04-11T19:59:16.737Z,5.90
2018-04-11T20:01:43.092Z,5.83
2018-04-11T20:04:10.130Z,8.97
2018-04-11T20:06:37.306Z,7.00
2018-04-11T20:09:04.386Z,8.70
2018-04-11T20:11:30.735Z,7.20
2018-04-11T20:13:57.890Z,7.80
2018-04-11T20:16:24.252Z,7.93
2018-04-11T20:18:50.542Z,6.90
2018-04-11T20:21:16.859Z,7.30
2018-04-11T20:23:43.145Z,6.73
2018-04-11T20:26:09.522Z,9.40
2018-04-11T20:28:35.801Z,6.53
2018-04-11T20:31:02.170Z,7.20
2018-04-11T20:33:28.505Z,7.73
2018-04-11T20:35:54.878Z,8.10
2018-04-11T20:38:21.261Z,7.43
2018-04-11T20:40:47.904Z,7.27
2018-04-11T20:43:14.236Z,6.07
2018-04-11T20:45:40.675Z,7.10
2018-04-11T20:48:07.070Z,6.70
2018-04-11T20:50:34.137Z,6.37
2018-04-11T20:53:00.438Z,8.10
2018-04-11T20:55:26.746Z,7.07
2018-04-11T20:57:53.132Z,5.90
2018-04-11T21:00:20.170Z,6.97
2018-04-11T21:02:47.214Z,6.50
2018-04-11T21:05:14.249Z,6.73
2018-04-11T21:07:41.405Z,7.87
2018-04-11T21:10:08.521Z,7.20
2018-04-11T21:12:35.564Z,7.53
2018-04-11T21:15:01.919Z,8.87
2018-04-11T21:17:28.785Z,9.50
2018-04-11T21:19:55.854Z,9.17
2018-04-11T21:22:22.186Z,9.27
2018-04-11T21:24:48.485Z,8.40
2018-04-11T21:27:14.818Z,7.83
2018-04-11T21:29:41.913Z,7.80
2018-04-11T21:32:08.264Z,8.10
2018-04-11T21:34:34.612Z,9.77
2018-04-11T21:37:00.963Z,9.07
2018-04-11T21:39:27.975Z,7.57
2018-04-11T21:41:55.226Z,7.00
2018-04-11T21:44:21.613Z,7.67
2018-04-11T21:46:48.617Z,7.70
2018-04-11T21:49:14.925Z,8.47
2018-04-11T21:51:41.168Z,7.70
2018-04-11T21:54:07.474Z,10.17
2018-04-11T21:56:33.771Z,7.73
2018-04-11T21:59:00.788Z,8.30
2018-04-11T22:01:27.055Z,8.27
2018-04-11T22:03:54.079Z,8.20
2018-04-11T22:06:20.394Z,9.13
2018-04-11T22:08:46.697Z,8.00
2018-04-11T22:11:13.008Z,8.40
2018-04-11T22:13:39.282Z,8.30
2018-04-11T22:16:05.638Z,8.70
2018-04-11T22:18:31.963Z,7.37
2018-04-11T22:20:58.247Z,8.13
2018-04-11T22:23:24.526Z,9.37
2018-04-11T22:25:50.787Z,7.67
2018-04-11T22:28:17.068Z,8.57
2018-04-11T22:30:43.367Z,7.90
2018-04-11T22:33:09.683Z,7.60
2018-04-11T22:35:36.951Z,7.50
2018-04-11T22:38:03.201Z,7.80
2018-04-11T22:40:29.465Z,8.20
2018-04-11T22:42:55.748Z,8.27
2018-04-11T22:45:22.079Z,9.00
2018-04-11T22:47:48.359Z,8.00
2018-04-11T22:50:14.632Z,8.40
2018-04-11T22:52:40.956Z,10.13
2018-04-11T22:55:07.268Z,8.63
2018-04-11T22:57:34.300Z,8.03
2018-04-11T23:00:00.742Z,7.27
2018-04-11T23:02:27.797Z,8.00
2018-04-11T23:04:54.826Z,7.60
2018-04-11T23:07:21.125Z,7.27
2018-04-11T23:09:47.398Z,8.13
2018-04-11T23:12:14.406Z,7.60
2018-04-11T23:14:40.682Z,8.40
2018-04-11T23:17:07.741Z,8.10
2018-04-11T23:19:34.045Z,7.90
2018-04-11T23:22:00.401Z,7.07
2018-04-11T23:24:26.739Z,6.90
2018-04-11T23:26:53.140Z,7.50
2018-04-11T23:29:19.367Z,6.67
2018-04-11T23:31:45.662Z,8.00
2018-04-11T23:34:11.933Z,7.50
2018-04-11T23:36:38.222Z,7.23
2018-04-11T23:39:04.518Z,7.70
2018-04-11T23:41:30.843Z,9.00
2018-04-11T23:43:57.121Z,7.40
2018-04-11T23:46:23.379Z,9.10
2018-04-11T23:48:49.645Z,8.30
2018-04-11T23:51:15.952Z,8.23
2018-04-11T23:53:42.985Z,7.50
2018-04-11T23:56:09.245Z,7.13
2018-04-11T23:58:35.841Z,7.50
